Погода Дермина 2 недели

Влёра, Албания

28 февраля-12 марта
  • 28февраля
    Сегодня
    +17°
    +25°
    Облачно с прояснениями
    ВремяПогодаТемператураВлажностьДавлениеВетер, м/сВероятность осадков
    01:00Облачно с прояснениями+17°C74 %757 мм2.1 м/с2 %
    04:00Практически безоблачно+15°C77 %757 мм2.1 м/с2 %
    07:00Облачно с прояснениями+15°C76 %757 мм1.2 м/с1 %
    10:00Небольшая облачность+20°C62 %757 мм2.1 м/с3 %
    13:00Облачно с прояснениями+23°C65 %756 мм2.3 м/с3 %
    16:00Облачно с прояснениями+24°C63 %755 мм0.5 м/с2 %
    19:00Облачно с прояснениями+20°C76 %755 мм1.4 м/с6 %
    22:00Пасмурно, сплошная облачность+19°C70 %756 мм1.4 м/с23 %
  • 29февраля
    Четверг
    +14°
    +25°
    Облачно с прояснениями
    ВремяПогодаТемператураВлажностьДавлениеВетер, м/сВероятность осадков
    01:00Облачно с прояснениями+17°C73 %756 мм1.3 м/с10 %
    04:00Облачно с прояснениями+18°C66 %754 мм2.3 м/с8 %
    07:00Облачно с прояснениями+18°C58 %754 мм3.7 м/с9 %
    10:00Облачно с прояснениями+22°C53 %754 мм4.0 м/с10 %
    13:00Облачно с прояснениями+25°C47 %754 мм6.6 м/с18 %
    16:00Пасмурно, небольшой дождь+24°C61 %753 мм6.6 м/с51 %
    19:00Пасмурно, дождь+20°C76 %752 мм2.9 м/с98 %
    22:00Пасмурно, дождь+19°C78 %752 мм5.6 м/с94 %
  • 01марта
    Пятница
    +13°
    +21°
    Облачно с прояснениями
    ВремяПогодаТемператураВлажностьДавлениеВетер, м/сВероятность осадков
    01:00Пасмурно, дождь+17°C87 %753 мм5.9 м/с96 %
    04:00Пасмурно, дождь+16°C87 %752 мм5.4 м/с83 %
    07:00Практически безоблачно+15°C83 %752 мм3.6 м/с45 %
    10:00Облачно с прояснениями+17°C70 %753 мм3.7 м/с26 %
    13:00Облачно с прояснениями+19°C73 %753 мм1.7 м/с38 %
    16:00Облачно с прояснениями+20°C71 %753 мм1.0 м/с40 %
    19:00Пасмурно, сплошная облачность+18°C81 %753 мм0.2 м/с23 %
    22:00Практически безоблачно+16°C79 %754 мм0.5 м/с30 %
  • 02марта
    Суббота
    +13°
    +21°
    Практически безоблачно
    ВремяПогодаТемператураВлажностьДавлениеВетер, м/сВероятность осадков
    01:00Облачно с прояснениями+14°C87 %754 мм1.9 м/с33 %
    04:00Облачно с прояснениями+14°C83 %754 мм1.2 м/с39 %
    07:00Облачно с прояснениями+13°C82 %755 мм1.5 м/с36 %
    10:00Ясно и безоблачно+17°C72 %756 мм1.6 м/с45 %
    13:00Практически безоблачно+20°C70 %756 мм1.7 м/с48 %
    16:00Ясно и безоблачно+20°C70 %756 мм0.9 м/с45 %
    19:00Ясно и безоблачно+17°C78 %756 мм1.2 м/с28 %
    22:00Ясно и безоблачно+15°C79 %757 мм1.5 м/с20 %
  • 03марта
    Воскресенье
    +14°
    +21°
    Ясно и безоблачно
    ВремяПогодаТемператураВлажностьДавлениеВетер, м/сВероятность осадков
    01:00Практически безоблачно+14°C83 %757 мм1.7 м/с19 %
    04:00Облачно с прояснениями+15°C84 %757 мм2.1 м/с9 %
    07:00Облачно с прояснениями+14°C85 %757 мм1.9 м/с5 %
    10:00Практически безоблачно+17°C74 %758 мм2.3 м/с11 %
    13:00Ясно и безоблачно+21°C72 %757 мм2.2 м/с12 %
    16:00Практически безоблачно+21°C74 %757 мм2.5 м/с11 %
    19:00Практически безоблачно+18°C85 %757 мм3.1 м/с14 %
    22:00Небольшая облачность+17°C90 %757 мм3.2 м/с8 %
Мы используем cookies
Соглашаюсь